F/v_l'omerta — FHXG — position and weather

sailwx.info

Track history (hours):
 
Tides and Currents Weather Stations Pressure Air Temp Water Temp Dewpoint Dewpoint Depression Visibility Wind Speed Wind Dir Waves Ship Positions

F/v_l'omerta

Last reported at 2017-Nov-23 16:30 UTC. Time now 2017-Nov-23 16:53 UTC.
Position N 46°30' W 001°47'.

Length 18 m.

Type: Fishing. MMSI: 227903000.

Date/timePositionNaut miles runAvg speedWind from/ knotsBaromVisibWave heightAir tempDewpointWater temp
2017-Nov-23 16:30N 46°30' W 001°47'0 0.0
2017-Nov-23 16:00N 46°30' W 001°47'0 0.0
2017-Nov-23 15:30N 46°30' W 001°47'0 0.0
2017-Nov-23 15:00N 46°30' W 001°47'0 0.0
2017-Nov-23 14:30N 46°30' W 001°47'0 0.0
2017-Nov-23 14:00N 46°30' W 001°47'0 0.0
2017-Nov-23 13:30N 46°30' W 001°47'0 0.0
2017-Nov-23 13:00N 46°30' W 001°47'0 0.0
2017-Nov-23 12:30N 46°30' W 001°47'0 0.0
2017-Nov-23 12:00N 46°30' W 001°47'0 0.0
2017-Nov-23 11:30N 46°30' W 001°47'0 0.0
2017-Nov-23 11:00N 46°30' W 001°47'0 0.0
2017-Nov-23 10:30N 46°30' W 001°47'0 0.0
2017-Nov-23 10:00N 46°30' W 001°47'0 0.0
2017-Nov-23 09:30N 46°30' W 001°47'0 0.0
2017-Nov-23 09:00N 46°30' W 001°47'0 0.0
2017-Nov-23 08:30N 46°30' W 001°47'0 0.0
2017-Nov-23 08:00N 46°30' W 001°47'0 0.0
2017-Nov-23 07:30N 46°30' W 001°47'0 0.0
2017-Nov-23 07:00N 46°30' W 001°47'0 0.1
2017-Nov-23 06:30N 46°30' W 001°47'0 0.4
2017-Nov-23 06:00N 46°30' W 001°47'0 0.0
2017-Nov-23 05:30N 46°30' W 001°47'2 4.5
2017-Nov-23 05:00N 46°29' W 001°50'4 8.5
2017-Nov-23 04:30N 46°29' W 001°56'4 8.5
2017-Nov-23 04:00N 46°30' W 002°02'4 8.5
2017-Nov-23 03:30N 46°32' W 002°08'7 3.1
2017-Nov-23 01:25N 46°31' W 002°18'2 3.5
2017-Nov-23 00:59N 46°30' W 002°16'1 3.1
2017-Nov-23 00:30N 46°29' W 002°14'1 2.7
2017-Nov-23 00:00N 46°30' W 002°14'7 2.2
2017-Nov-22 20:53N 46°32' W 002°24'3 2.9
2017-Nov-22 19:54N 46°34' W 002°23'1 3.6
2017-Nov-22 19:30N 46°36' W 002°22'  
2017-Nov-20 00:30N 46°14' W 001°47'2 3.6
2017-Nov-20 00:00N 46°15' W 001°48'0 0.9
2017-Nov-19 23:30N 46°16' W 001°48'2 3.8
2017-Nov-19 22:53N 46°14' W 001°47'2 3.8
2017-Nov-19 22:28N 46°12' W 001°45'2 3.6
2017-Nov-19 22:00N 46°12' W 001°43'2 3.1
2017-Nov-19 21:30N 46°13' W 001°42'2 3.8
2017-Nov-19 21:00N 46°15' W 001°42'2 4.0
2017-Nov-19 20:30N 46°17' W 001°43'4 8.2
2017-Nov-19 20:00N 46°21' W 001°44'4 8.9
2017-Nov-19 19:30N 46°25' W 001°46'4 8.8
2017-Nov-19 19:00N 46°30' W 001°48'0 0.4
2017-Nov-19 18:30N 46°30' W 001°47'0 0.0
2017-Nov-19 18:00N 46°30' W 001°47'0 0.4
2017-Nov-19 17:30N 46°30' W 001°47'1 2.3
2017-Nov-19 17:00N 46°29' W 001°47'4 7.7
2017-Nov-19 16:30N 46°28' W 001°52'1 1.8
2017-Nov-19 16:00N 46°28' W 001°54'2 3.8
2017-Nov-19 15:30N 46°28' W 001°56'2 3.6
2017-Nov-19 15:00N 46°29' W 001°59'2 3.6
2017-Nov-19 14:30N 46°30' W 002°01'2 3.8
2017-Nov-19 14:00N 46°30' W 002°03'2 3.9
2017-Nov-19 13:30N 46°29' W 002°06'2 3.3
2017-Nov-19 13:00N 46°28' W 002°08'2 3.5
2017-Nov-19 12:30N 46°29' W 002°10'2 3.7
2017-Nov-19 12:00N 46°31' W 002°11'5 3.3
2017-Nov-19 10:30N 46°35' W 002°15'2 3.4
2017-Nov-19 10:00N 46°34' W 002°12'1 1.1
2017-Nov-19 09:30N 46°34' W 002°12'2 3.2
2017-Nov-19 08:47N 46°35' W 002°15'1 3.5
2017-Nov-19 08:30N 46°35' W 002°16'3 2.5
2017-Nov-19 07:18N 46°32' W 002°15'2 3.8
2017-Nov-19 06:52N 46°31' W 002°14'1 3.7
2017-Nov-19 06:30N 46°30' W 002°13'1 1.5
2017-Nov-19 06:00N 46°29' W 002°12'2 3.8
2017-Nov-19 05:29N 46°31' W 002°14'2 3.8
2017-Nov-19 04:59N 46°32' W 002°16'2 3.8
2017-Nov-19 04:22N 46°34' W 002°18'1 2.8
2017-Nov-19 04:00N 46°35' W 002°17'2 3.6
2017-Nov-19 03:23N 46°35' W 002°14'1 3.5
2017-Nov-19 02:59N 46°34' W 002°12'2 3.6
2017-Nov-19 02:29N 46°33' W 002°11'1 2.5
2017-Nov-19 01:58N 46°31' W 002°11'2 3.3
2017-Nov-19 01:30N 46°32' W 002°13'2 4.0
2017-Nov-19 01:00N 46°33' W 002°14'2 3.4
2017-Nov-19 00:30N 46°35' W 002°15'2 3.3
2017-Nov-18 23:59N 46°34' W 002°13'2 3.7
2017-Nov-18 23:30N 46°33' W 002°11'2 3.3
2017-Nov-18 22:51N 46°31' W 002°11'1 2.4
2017-Nov-18 22:24N 46°31' W 002°12'2 3.8
2017-Nov-18 21:59N 46°33' W 002°14'2 3.7
2017-Nov-18 21:30N 46°34' W 002°15'1 2.5
2017-Nov-18 21:00N 46°35' W 002°14'2 3.8
2017-Nov-18 20:30N 46°34' W 002°12'2 3.8
2017-Nov-18 20:00N 46°32' W 002°10'2 3.5
2017-Nov-18 19:30N 46°31' W 002°11'2 3.3
2017-Nov-18 19:00N 46°30' W 002°14'2 3.3
2017-Nov-18 18:27N 46°32' W 002°15'3 3.8
2017-Nov-18 17:42N 46°34' W 002°18'5 3.5
2017-Nov-18 16:24N 46°31' W 002°13'1 3.0
2017-Nov-18 15:59N 46°30' W 002°13'2 3.8
2017-Nov-18 15:26N 46°31' W 002°15'2 4.0
2017-Nov-18 14:57N 46°33' W 002°16'0 0.4
2017-Nov-18 14:09N 46°33' W 002°16'1 3.4
2017-Nov-18 13:43N 46°31' W 002°15'1 3.4
2017-Nov-18 13:29N 46°31' W 002°14'2 3.4
2017-Nov-18 13:00N 46°30' W 002°13'2 3.4
2017-Nov-18 12:21N 46°28' W 002°11'2 3.5
2017-Nov-18 11:43N 46°26' W 002°09'1 3.5
2017-Nov-18 11:24N 46°25' W 002°08'1 3.3
2017-Nov-18 11:00N 46°24' W 002°07'1 1.8
2017-Nov-18 10:26N 46°25' W 002°06'2 3.7
2017-Nov-18 09:58N 46°26' W 002°07'2 3.6
2017-Nov-18 09:30N 46°28' W 002°09'2 3.6
2017-Nov-18 09:00N 46°29' W 002°10'2 3.5
2017-Nov-18 08:30N 46°30' W 002°12'1 2.9
2017-Nov-18 08:00N 46°29' W 002°12'2 3.9
2017-Nov-18 07:30N 46°27' W 002°10'2 3.8
2017-Nov-18 06:58N 46°26' W 002°09'2 2.9
2017-Nov-18 06:26N 46°27' W 002°10'2 3.7
2017-Nov-18 05:52N 46°29' W 002°12'1 3.7
2017-Nov-18 05:30N 46°30' W 002°13'3 3.8
2017-Nov-18 04:42N 46°32' W 002°16'23 1.3
2017-Nov-17 11:04N 46°40' W 002°47'3 1.9
2017-Nov-17 09:41N 46°43' W 002°46'1 4.0
2017-Nov-17 09:30N 46°43' W 002°45'1 2.5
2017-Nov-17 09:00N 46°43' W 002°44'2 3.1
2017-Nov-17 08:30N 46°44' W 002°42'2 3.4
2017-Nov-17 08:00N 46°42' W 002°41'4 3.6
2017-Nov-17 06:59N 46°39' W 002°39'7 4.2
2017-Nov-17 05:22N 46°34' W 002°32'4 9.2
2017-Nov-17 04:59N 46°34' W 002°27'5 9.2
2017-Nov-17 04:24N 46°33' W 002°19'4 9.1
2017-Nov-17 04:00N 46°32' W 002°14'4 9.0
2017-Nov-17 03:30N 46°31' W 002°08'4 9.0
2017-Nov-17 03:00N 46°30' W 002°01'4 9.0
2017-Nov-17 02:30N 46°29' W 001°55'4 8.8
2017-Nov-17 02:00N 46°29' W 001°48'2 3.3
2017-Nov-17 01:30N 46°30' W 001°47'0 0.3
2017-Nov-17 01:00N 46°30' W 001°47'3 5.9
2017-Nov-17 00:30N 46°28' W 001°51'5 9.1
2017-Nov-17 00:00N 46°27' W 001°57'3 5.5
2017-Nov-16 23:30N 46°28' W 002°01'2 4.0
2017-Nov-16 23:00N 46°28' W 002°04'2 3.7
2017-Nov-16 22:30N 46°29' W 002°07'2 3.9
2017-Nov-16 22:00N 46°30' W 002°08'2 3.9
2017-Nov-16 21:30N 46°32' W 002°10'2 3.8
2017-Nov-16 21:00N 46°33' W 002°11'2 3.8
2017-Nov-16 20:30N 46°35' W 002°13'1 2.7
2017-Nov-16 20:00N 46°35' W 002°15'2 3.7
2017-Nov-16 19:30N 46°35' W 002°17'2 3.6
2017-Nov-16 19:00N 46°33' W 002°18'2 3.9
2017-Nov-16 18:30N 46°31' W 002°18'2 3.9
2017-Nov-16 17:57N 46°29' W 002°17'2 3.9
2017-Nov-16 17:30N 46°27' W 002°17'1 2.4
2017-Nov-16 17:00N 46°26' W 002°17'3 3.4
2017-Nov-16 16:00N 46°28' W 002°21'2 3.8
2017-Nov-16 15:29N 46°30' W 002°23'2 3.9
2017-Nov-16 14:58N 46°32' W 002°21'2 3.9
2017-Nov-16 14:30N 46°33' W 002°20'2 3.6
2017-Nov-16 13:55N 46°35' W 002°19'2 2.8
2017-Nov-16 13:14N 46°34' W 002°21'1 3.9
2017-Nov-16 13:00N 46°34' W 002°22'2 3.7
2017-Nov-16 12:30N 46°32' W 002°24'1 3.0
2017-Nov-16 12:00N 46°32' W 002°26'2 3.7
2017-Nov-16 11:30N 46°34' W 002°24'2 4.1
2017-Nov-16 11:00N 46°35' W 002°23'2 3.3
2017-Nov-16 10:30N 46°37' W 002°21'1 2.4
2017-Nov-16 10:00N 46°36' W 002°19'2 3.8
2017-Nov-16 09:30N 46°35' W 002°18'2 3.9
2017-Nov-16 09:00N 46°33' W 002°17'3 3.8
2017-Nov-16 08:19N 46°31' W 002°14'1 3.8
2017-Nov-16 08:00N 46°30' W 002°13'2 3.9
2017-Nov-16 07:30N 46°28' W 002°11'2 3.8
2017-Nov-16 07:00N 46°27' W 002°09'4 6.7
2017-Nov-16 06:29N 46°27' W 002°04'4 8.5
2017-Nov-16 06:00N 46°27' W 001°59'4 8.5
2017-Nov-16 05:30N 46°28' W 001°52'4 7.6
2017-Nov-16 05:00N 46°29' W 001°47'1 2.4
2017-Nov-16 04:30N 46°30' W 001°47'0 0.0
2017-Nov-16 04:00N 46°30' W 001°47'0 0.0
2017-Nov-16 03:30N 46°30' W 001°47'0 0.0
2017-Nov-16 03:00N 46°30' W 001°47'0 0.0
2017-Nov-16 02:30N 46°30' W 001°47'0 0.0
2017-Nov-16 02:00N 46°30' W 001°47'0 0.0
2017-Nov-16 01:30N 46°30' W 001°47'0 0.0
2017-Nov-16 01:00N 46°30' W 001°47'0 0.0
2017-Nov-16 00:30N 46°30' W 001°47'0 0.0
2017-Nov-16 00:00N 46°30' W 001°47'0 0.0
2017-Nov-15 23:30N 46°30' W 001°47'0 0.0
2017-Nov-15 23:00N 46°30' W 001°47'0 0.0
2017-Nov-15 22:30N 46°30' W 001°47'0 0.0
2017-Nov-15 22:00N 46°30' W 001°47'0 0.0
2017-Nov-15 21:30N 46°30' W 001°47'0 0.0
2017-Nov-15 21:00N 46°30' W 001°47'0 0.0
2017-Nov-15 20:30N 46°30' W 001°47'0 0.0
2017-Nov-15 20:00N 46°30' W 001°47'0 0.0
2017-Nov-15 19:30N 46°30' W 001°47'0 0.0
2017-Nov-15 19:00N 46°30' W 001°47'0 0.0
2017-Nov-15 18:30N 46°30' W 001°47'0 0.0
2017-Nov-15 18:00N 46°30' W 001°47'0 0.0
2017-Nov-15 17:30N 46°30' W 001°47'0 0.0
2017-Nov-15 17:00N 46°30' W 001°47'0 0.0
2017-Nov-15 16:30N 46°30' W 001°47'0 0.0
2017-Nov-15 16:00N 46°30' W 001°47'0 0.0
2017-Nov-15 15:30N 46°30' W 001°47'0 0.0
2017-Nov-15 15:00N 46°30' W 001°47'0 0.0
2017-Nov-15 14:30N 46°30' W 001°47'0 0.0
2017-Nov-15 14:00N 46°30' W 001°47'0 0.0
2017-Nov-15 13:30N 46°30' W 001°47'0 0.0
2017-Nov-15 13:00N 46°30' W 001°47'0 0.0
2017-Nov-15 12:30N 46°30' W 001°47'0 0.0
2017-Nov-15 12:00N 46°30' W 001°47'0 0.0
2017-Nov-15 11:30N 46°30' W 001°47'0 0.0
2017-Nov-15 11:00N 46°30' W 001°47'0 0.0
2017-Nov-15 10:30N 46°30' W 001°47'0 0.0
2017-Nov-15 10:00N 46°30' W 001°47'0 0.0
2017-Nov-15 09:30N 46°30' W 001°47'0 0.0
2017-Nov-15 09:00N 46°30' W 001°47'0 0.0
2017-Nov-15 08:30N 46°30' W 001°47'0 0.0
2017-Nov-15 08:00N 46°30' W 001°47'0 0.0
2017-Nov-15 07:30N 46°30' W 001°47'0 0.0
2017-Nov-15 07:00N 46°30' W 001°47'0 0.0
2017-Nov-15 06:30N 46°30' W 001°47'0 0.0
2017-Nov-15 06:00N 46°30' W 001°47'0 0.0
2017-Nov-15 05:30N 46°30' W 001°47'0 0.0
2017-Nov-15 05:00N 46°30' W 001°47'0 0.0
2017-Nov-15 04:30N 46°30' W 001°47'0 0.0
2017-Nov-15 04:00N 46°30' W 001°47'0 0.0
2017-Nov-15 03:30N 46°30' W 001°47'0 0.0
2017-Nov-15 03:00N 46°30' W 001°47'0 0.0
2017-Nov-15 02:30N 46°30' W 001°47'0 0.0
2017-Nov-15 02:00N 46°30' W 001°47'0 0.0
2017-Nov-15 01:30N 46°30' W 001°47'0 0.0
2017-Nov-15 01:00N 46°30' W 001°47'0 0.0
2017-Nov-15 00:30N 46°30' W 001°47'0 0.0
2017-Nov-15 00:00N 46°30' W 001°47'0 0.0
2017-Nov-14 23:30N 46°30' W 001°47'0 0.0
2017-Nov-14 23:00N 46°30' W 001°47'0 0.0
2017-Nov-14 22:30N 46°30' W 001°47'0 0.0
2017-Nov-14 22:00N 46°30' W 001°47'0 0.0
2017-Nov-14 21:30N 46°30' W 001°47'0 0.0
2017-Nov-14 21:00N 46°30' W 001°47'0 0.0
2017-Nov-14 20:30N 46°30' W 001°47'0 0.0
2017-Nov-14 20:00N 46°30' W 001°47'0 0.0
2017-Nov-14 19:30N 46°30' W 001°47'0 0.0
2017-Nov-14 19:00N 46°30' W 001°47'0 0.0
2017-Nov-14 18:30N 46°30' W 001°47'0 0.0
2017-Nov-14 18:00N 46°30' W 001°47'0 0.0
2017-Nov-14 17:30N 46°30' W 001°47'0 0.0
2017-Nov-14 17:00N 46°30' W 001°47'0 0.0
2017-Nov-14 16:30N 46°30' W 001°47'0 0.0
2017-Nov-14 16:00N 46°30' W 001°47'0 0.0
2017-Nov-14 15:30N 46°30' W 001°47'0 0.0
2017-Nov-14 15:00N 46°30' W 001°47'0 0.0
2017-Nov-14 14:30N 46°30' W 001°47'0 0.0
2017-Nov-14 14:00N 46°30' W 001°47'0 0.0
2017-Nov-14 13:30N 46°30' W 001°47'0 0.0
2017-Nov-14 13:00N 46°30' W 001°47'0 0.0
2017-Nov-14 12:30N 46°30' W 001°47'0 0.0
2017-Nov-14 12:00N 46°30' W 001°47'0 0.0
2017-Nov-14 11:30N 46°30' W 001°47'0 0.0
2017-Nov-14 11:00N 46°30' W 001°47'0 0.0
2017-Nov-14 10:30N 46°30' W 001°47'0 0.0
2017-Nov-14 10:00N 46°30' W 001°47'0 0.0
2017-Nov-14 09:30N 46°30' W 001°47'0 0.0
2017-Nov-14 09:00N 46°30' W 001°47'0 0.0
2017-Nov-14 08:30N 46°30' W 001°47'0 0.0
2017-Nov-14 08:00N 46°30' W 001°47'0 0.0
2017-Nov-14 07:30N 46°30' W 001°47'0 0.0
2017-Nov-14 07:00N 46°30' W 001°47'0 0.0
2017-Nov-14 06:30N 46°30' W 001°47'0 0.0
2017-Nov-14 06:00N 46°30' W 001°47'0 0.0
2017-Nov-14 05:30N 46°30' W 001°47'0 0.0
2017-Nov-14 05:00N 46°30' W 001°47'0 0.0
2017-Nov-14 04:30N 46°30' W 001°47'0 0.0
2017-Nov-14 04:00N 46°30' W 001°47'0 0.0
2017-Nov-14 03:30N 46°30' W 001°47'0 0.0
2017-Nov-14 03:00N 46°30' W 001°47'0 0.0
2017-Nov-14 02:30N 46°30' W 001°47'0 0.0
2017-Nov-14 02:00N 46°30' W 001°47'0 0.0
2017-Nov-14 01:30N 46°30' W 001°47'0 0.0
2017-Nov-14 01:00N 46°30' W 001°47'0 0.0
2017-Nov-14 00:30N 46°30' W 001°47'0 0.0
2017-Nov-14 00:00N 46°30' W 001°47'0 0.0
2017-Nov-13 23:30N 46°30' W 001°47'0 0.0
2017-Nov-13 23:00N 46°30' W 001°47'0 0.0
2017-Nov-13 22:30N 46°30' W 001°47'0 0.0
2017-Nov-13 22:00N 46°30' W 001°47'  
Track history (hours):
 
Tides and Currents Weather Stations Pressure Air Temp Water Temp Dewpoint Dewpoint Depression Visibility Wind Speed Wind Dir Waves Ship Positions

F/v_l'omerta

Last reported at 2017-Nov-23 16:30 UTC. Time now 2017-Nov-23 16:53 UTC.
Position N 46°30' W 001°47'.

Length 18 m.

Type: Fishing. MMSI: 227903000.

Date/timePositionNaut miles runAvg speedWind from/ knotsBaromVisibWave heightAir tempDewpointWater temp
2017-Nov-23 16:30N 46°30' W 001°47'0 0.0
2017-Nov-23 16:00N 46°30' W 001°47'0 0.0
2017-Nov-23 15:30N 46°30' W 001°47'0 0.0
2017-Nov-23 15:00N 46°30' W 001°47'0 0.0
2017-Nov-23 14:30N 46°30' W 001°47'0 0.0
2017-Nov-23 14:00N 46°30' W 001°47'0 0.0
2017-Nov-23 13:30N 46°30' W 001°47'0 0.0
2017-Nov-23 13:00N 46°30' W 001°47'0 0.0
2017-Nov-23 12:30N 46°30' W 001°47'0 0.0
2017-Nov-23 12:00N 46°30' W 001°47'0 0.0
2017-Nov-23 11:30N 46°30' W 001°47'0 0.0
2017-Nov-23 11:00N 46°30' W 001°47'0 0.0
2017-Nov-23 10:30N 46°30' W 001°47'0 0.0
2017-Nov-23 10:00N 46°30' W 001°47'0 0.0
2017-Nov-23 09:30N 46°30' W 001°47'0 0.0
2017-Nov-23 09:00N 46°30' W 001°47'0 0.0
2017-Nov-23 08:30N 46°30' W 001°47'0 0.0
2017-Nov-23 08:00N 46°30' W 001°47'0 0.0
2017-Nov-23 07:30N 46°30' W 001°47'0 0.0
2017-Nov-23 07:00N 46°30' W 001°47'0 0.1
2017-Nov-23 06:30N 46°30' W 001°47'0 0.4
2017-Nov-23 06:00N 46°30' W 001°47'0 0.0
2017-Nov-23 05:30N 46°30' W 001°47'2 4.5
2017-Nov-23 05:00N 46°29' W 001°50'4 8.5
2017-Nov-23 04:30N 46°29' W 001°56'4 8.5
2017-Nov-23 04:00N 46°30' W 002°02'4 8.5
2017-Nov-23 03:30N 46°32' W 002°08'7 3.1
2017-Nov-23 01:25N 46°31' W 002°18'2 3.5
2017-Nov-23 00:59N 46°30' W 002°16'1 3.1
2017-Nov-23 00:30N 46°29' W 002°14'1 2.7
2017-Nov-23 00:00N 46°30' W 002°14'7 2.2
2017-Nov-22 20:53N 46°32' W 002°24'3 2.9
2017-Nov-22 19:54N 46°34' W 002°23'1 3.6
2017-Nov-22 19:30N 46°36' W 002°22'  
2017-Nov-20 00:30N 46°14' W 001°47'2 3.6
2017-Nov-20 00:00N 46°15' W 001°48'0 0.9
2017-Nov-19 23:30N 46°16' W 001°48'2 3.8
2017-Nov-19 22:53N 46°14' W 001°47'2 3.8
2017-Nov-19 22:28N 46°12' W 001°45'2 3.6
2017-Nov-19 22:00N 46°12' W 001°43'2 3.1
2017-Nov-19 21:30N 46°13' W 001°42'2 3.8
2017-Nov-19 21:00N 46°15' W 001°42'2 4.0
2017-Nov-19 20:30N 46°17' W 001°43'4 8.2
2017-Nov-19 20:00N 46°21' W 001°44'4 8.9
2017-Nov-19 19:30N 46°25' W 001°46'4 8.8
2017-Nov-19 19:00N 46°30' W 001°48'0 0.4
2017-Nov-19 18:30N 46°30' W 001°47'0 0.0
2017-Nov-19 18:00N 46°30' W 001°47'0 0.4
2017-Nov-19 17:30N 46°30' W 001°47'1 2.3
2017-Nov-19 17:00N 46°29' W 001°47'4 7.7
2017-Nov-19 16:30N 46°28' W 001°52'1 1.8
2017-Nov-19 16:00N 46°28' W 001°54'2 3.8
2017-Nov-19 15:30N 46°28' W 001°56'2 3.6
2017-Nov-19 15:00N 46°29' W 001°59'2 3.6
2017-Nov-19 14:30N 46°30' W 002°01'2 3.8
2017-Nov-19 14:00N 46°30' W 002°03'2 3.9
2017-Nov-19 13:30N 46°29' W 002°06'2 3.3
2017-Nov-19 13:00N 46°28' W 002°08'2 3.5
2017-Nov-19 12:30N 46°29' W 002°10'2 3.7
2017-Nov-19 12:00N 46°31' W 002°11'5 3.3
2017-Nov-19 10:30N 46°35' W 002°15'2 3.4
2017-Nov-19 10:00N 46°34' W 002°12'1 1.1
2017-Nov-19 09:30N 46°34' W 002°12'2 3.2
2017-Nov-19 08:47N 46°35' W 002°15'1 3.5
2017-Nov-19 08:30N 46°35' W 002°16'3 2.5
2017-Nov-19 07:18N 46°32' W 002°15'2 3.8
2017-Nov-19 06:52N 46°31' W 002°14'1 3.7
2017-Nov-19 06:30N 46°30' W 002°13'1 1.5
2017-Nov-19 06:00N 46°29' W 002°12'2 3.8
2017-Nov-19 05:29N 46°31' W 002°14'2 3.8
2017-Nov-19 04:59N 46°32' W 002°16'2 3.8
2017-Nov-19 04:22N 46°34' W 002°18'1 2.8
2017-Nov-19 04:00N 46°35' W 002°17'2 3.6
2017-Nov-19 03:23N 46°35' W 002°14'1 3.5
2017-Nov-19 02:59N 46°34' W 002°12'2 3.6
2017-Nov-19 02:29N 46°33' W 002°11'1 2.5
2017-Nov-19 01:58N 46°31' W 002°11'2 3.3
2017-Nov-19 01:30N 46°32' W 002°13'2 4.0
2017-Nov-19 01:00N 46°33' W 002°14'2 3.4
2017-Nov-19 00:30N 46°35' W 002°15'2 3.3
2017-Nov-18 23:59N 46°34' W 002°13'2 3.7
2017-Nov-18 23:30N 46°33' W 002°11'2 3.3
2017-Nov-18 22:51N 46°31' W 002°11'1 2.4
2017-Nov-18 22:24N 46°31' W 002°12'2 3.8
2017-Nov-18 21:59N 46°33' W 002°14'2 3.7
2017-Nov-18 21:30N 46°34' W 002°15'1 2.5
2017-Nov-18 21:00N 46°35' W 002°14'2 3.8
2017-Nov-18 20:30N 46°34' W 002°12'2 3.8
2017-Nov-18 20:00N 46°32' W 002°10'2 3.5
2017-Nov-18 19:30N 46°31' W 002°11'2 3.3
2017-Nov-18 19:00N 46°30' W 002°14'2 3.3
2017-Nov-18 18:27N 46°32' W 002°15'3 3.8
2017-Nov-18 17:42N 46°34' W 002°18'5 3.5
2017-Nov-18 16:24N 46°31' W 002°13'1 3.0
2017-Nov-18 15:59N 46°30' W 002°13'2 3.8
2017-Nov-18 15:26N 46°31' W 002°15'2 4.0
2017-Nov-18 14:57N 46°33' W 002°16'0 0.4
2017-Nov-18 14:09N 46°33' W 002°16'1 3.4
2017-Nov-18 13:43N 46°31' W 002°15'1 3.4
2017-Nov-18 13:29N 46°31' W 002°14'2 3.4
2017-Nov-18 13:00N 46°30' W 002°13'2 3.4
2017-Nov-18 12:21N 46°28' W 002°11'2 3.5
2017-Nov-18 11:43N 46°26' W 002°09'1 3.5
2017-Nov-18 11:24N 46°25' W 002°08'1 3.3
2017-Nov-18 11:00N 46°24' W 002°07'1 1.8
2017-Nov-18 10:26N 46°25' W 002°06'2 3.7
2017-Nov-18 09:58N 46°26' W 002°07'2 3.6
2017-Nov-18 09:30N 46°28' W 002°09'2 3.6
2017-Nov-18 09:00N 46°29' W 002°10'2 3.5
2017-Nov-18 08:30N 46°30' W 002°12'1 2.9
2017-Nov-18 08:00N 46°29' W 002°12'2 3.9
2017-Nov-18 07:30N 46°27' W 002°10'2 3.8
2017-Nov-18 06:58N 46°26' W 002°09'2 2.9
2017-Nov-18 06:26N 46°27' W 002°10'2 3.7
2017-Nov-18 05:52N 46°29' W 002°12'1 3.7
2017-Nov-18 05:30N 46°30' W 002°13'3 3.8
2017-Nov-18 04:42N 46°32' W 002°16'23 1.3
2017-Nov-17 11:04N 46°40' W 002°47'3 1.9
2017-Nov-17 09:41N 46°43' W 002°46'1 4.0
2017-Nov-17 09:30N 46°43' W 002°45'1 2.5
2017-Nov-17 09:00N 46°43' W 002°44'2 3.1
2017-Nov-17 08:30N 46°44' W 002°42'2 3.4
2017-Nov-17 08:00N 46°42' W 002°41'4 3.6
2017-Nov-17 06:59N 46°39' W 002°39'7 4.2
2017-Nov-17 05:22N 46°34' W 002°32'4 9.2
2017-Nov-17 04:59N 46°34' W 002°27'5 9.2
2017-Nov-17 04:24N 46°33' W 002°19'4 9.1
2017-Nov-17 04:00N 46°32' W 002°14'4 9.0
2017-Nov-17 03:30N 46°31' W 002°08'4 9.0
2017-Nov-17 03:00N 46°30' W 002°01'4 9.0
2017-Nov-17 02:30N 46°29' W 001°55'4 8.8
2017-Nov-17 02:00N 46°29' W 001°48'2 3.3
2017-Nov-17 01:30N 46°30' W 001°47'0 0.3
2017-Nov-17 01:00N 46°30' W 001°47'3 5.9
2017-Nov-17 00:30N 46°28' W 001°51'5 9.1
2017-Nov-17 00:00N 46°27' W 001°57'3 5.5
2017-Nov-16 23:30N 46°28' W 002°01'2 4.0
2017-Nov-16 23:00N 46°28' W 002°04'2 3.7
2017-Nov-16 22:30N 46°29' W 002°07'2 3.9
2017-Nov-16 22:00N 46°30' W 002°08'2 3.9
2017-Nov-16 21:30N 46°32' W 002°10'2 3.8
2017-Nov-16 21:00N 46°33' W 002°11'2 3.8
2017-Nov-16 20:30N 46°35' W 002°13'1 2.7
2017-Nov-16 20:00N 46°35' W 002°15'2 3.7
2017-Nov-16 19:30N 46°35' W 002°17'2 3.6
2017-Nov-16 19:00N 46°33' W 002°18'2 3.9
2017-Nov-16 18:30N 46°31' W 002°18'2 3.9
2017-Nov-16 17:57N 46°29' W 002°17'2 3.9
2017-Nov-16 17:30N 46°27' W 002°17'1 2.4
2017-Nov-16 17:00N 46°26' W 002°17'3 3.4
2017-Nov-16 16:00N 46°28' W 002°21'2 3.8
2017-Nov-16 15:29N 46°30' W 002°23'2 3.9
2017-Nov-16 14:58N 46°32' W 002°21'2 3.9
2017-Nov-16 14:30N 46°33' W 002°20'2 3.6
2017-Nov-16 13:55N 46°35' W 002°19'2 2.8
2017-Nov-16 13:14N 46°34' W 002°21'1 3.9
2017-Nov-16 13:00N 46°34' W 002°22'2 3.7
2017-Nov-16 12:30N 46°32' W 002°24'1 3.0
2017-Nov-16 12:00N 46°32' W 002°26'2 3.7
2017-Nov-16 11:30N 46°34' W 002°24'2 4.1
2017-Nov-16 11:00N 46°35' W 002°23'2 3.3
2017-Nov-16 10:30N 46°37' W 002°21'1 2.4
2017-Nov-16 10:00N 46°36' W 002°19'2 3.8
2017-Nov-16 09:30N 46°35' W 002°18'2 3.9
2017-Nov-16 09:00N 46°33' W 002°17'3 3.8
2017-Nov-16 08:19N 46°31' W 002°14'1 3.8
2017-Nov-16 08:00N 46°30' W 002°13'2 3.9
2017-Nov-16 07:30N 46°28' W 002°11'2 3.8
2017-Nov-16 07:00N 46°27' W 002°09'4 6.7
2017-Nov-16 06:29N 46°27' W 002°04'4 8.5
2017-Nov-16 06:00N 46°27' W 001°59'4 8.5
2017-Nov-16 05:30N 46°28' W 001°52'4 7.6
2017-Nov-16 05:00N 46°29' W 001°47'1 2.4
2017-Nov-16 04:30N 46°30' W 001°47'0 0.0
2017-Nov-16 04:00N 46°30' W 001°47'0 0.0
2017-Nov-16 03:30N 46°30' W 001°47'0 0.0
2017-Nov-16 03:00N 46°30' W 001°47'0 0.0
2017-Nov-16 02:30N 46°30' W 001°47'0 0.0
2017-Nov-16 02:00N 46°30' W 001°47'0 0.0
2017-Nov-16 01:30N 46°30' W 001°47'0 0.0
2017-Nov-16 01:00N 46°30' W 001°47'0 0.0
2017-Nov-16 00:30N 46°30' W 001°47'0 0.0
2017-Nov-16 00:00N 46°30' W 001°47'0 0.0
2017-Nov-15 23:30N 46°30' W 001°47'0 0.0
2017-Nov-15 23:00N 46°30' W 001°47'0 0.0
2017-Nov-15 22:30N 46°30' W 001°47'0 0.0
2017-Nov-15 22:00N 46°30' W 001°47'0 0.0
2017-Nov-15 21:30N 46°30' W 001°47'0 0.0
2017-Nov-15 21:00N 46°30' W 001°47'0 0.0
2017-Nov-15 20:30N 46°30' W 001°47'0 0.0
2017-Nov-15 20:00N 46°30' W 001°47'0 0.0
2017-Nov-15 19:30N 46°30' W 001°47'0 0.0
2017-Nov-15 19:00N 46°30' W 001°47'0 0.0
2017-Nov-15 18:30N 46°30' W 001°47'0 0.0
2017-Nov-15 18:00N 46°30' W 001°47'0 0.0
2017-Nov-15 17:30N 46°30' W 001°47'0 0.0
2017-Nov-15 17:00N 46°30' W 001°47'0 0.0
2017-Nov-15 16:30N 46°30' W 001°47'0 0.0
2017-Nov-15 16:00N 46°30' W 001°47'0 0.0
2017-Nov-15 15:30N 46°30' W 001°47'0 0.0
2017-Nov-15 15:00N 46°30' W 001°47'0 0.0
2017-Nov-15 14:30N 46°30' W 001°47'0 0.0
2017-Nov-15 14:00N 46°30' W 001°47'0 0.0
2017-Nov-15 13:30N 46°30' W 001°47'0 0.0
2017-Nov-15 13:00N 46°30' W 001°47'0 0.0
2017-Nov-15 12:30N 46°30' W 001°47'0 0.0
2017-Nov-15 12:00N 46°30' W 001°47'0 0.0
2017-Nov-15 11:30N 46°30' W 001°47'0 0.0
2017-Nov-15 11:00N 46°30' W 001°47'0 0.0
2017-Nov-15 10:30N 46°30' W 001°47'0 0.0
2017-Nov-15 10:00N 46°30' W 001°47'0 0.0
2017-Nov-15 09:30N 46°30' W 001°47'0 0.0
2017-Nov-15 09:00N 46°30' W 001°47'0 0.0
2017-Nov-15 08:30N 46°30' W 001°47'0 0.0
2017-Nov-15 08:00N 46°30' W 001°47'0 0.0
2017-Nov-15 07:30N 46°30' W 001°47'0 0.0
2017-Nov-15 07:00N 46°30' W 001°47'0 0.0
2017-Nov-15 06:30N 46°30' W 001°47'0 0.0
2017-Nov-15 06:00N 46°30' W 001°47'0 0.0
2017-Nov-15 05:30N 46°30' W 001°47'0 0.0
2017-Nov-15 05:00N 46°30' W 001°47'0 0.0
2017-Nov-15 04:30N 46°30' W 001°47'0 0.0
2017-Nov-15 04:00N 46°30' W 001°47'0 0.0
2017-Nov-15 03:30N 46°30' W 001°47'0 0.0
2017-Nov-15 03:00N 46°30' W 001°47'0 0.0
2017-Nov-15 02:30N 46°30' W 001°47'0 0.0
2017-Nov-15 02:00N 46°30' W 001°47'0 0.0
2017-Nov-15 01:30N 46°30' W 001°47'0 0.0
2017-Nov-15 01:00N 46°30' W 001°47'0 0.0
2017-Nov-15 00:30N 46°30' W 001°47'0 0.0
2017-Nov-15 00:00N 46°30' W 001°47'0 0.0
2017-Nov-14 23:30N 46°30' W 001°47'0 0.0
2017-Nov-14 23:00N 46°30' W 001°47'0 0.0
2017-Nov-14 22:30N 46°30' W 001°47'0 0.0
2017-Nov-14 22:00N 46°30' W 001°47'0 0.0
2017-Nov-14 21:30N 46°30' W 001°47'0 0.0
2017-Nov-14 21:00N 46°30' W 001°47'0 0.0
2017-Nov-14 20:30N 46°30' W 001°47'0 0.0
2017-Nov-14 20:00N 46°30' W 001°47'0 0.0
2017-Nov-14 19:30N 46°30' W 001°47'0 0.0
2017-Nov-14 19:00N 46°30' W 001°47'0 0.0
2017-Nov-14 18:30N 46°30' W 001°47'0 0.0
2017-Nov-14 18:00N 46°30' W 001°47'0 0.0
2017-Nov-14 17:30N 46°30' W 001°47'0 0.0
2017-Nov-14 17:00N 46°30' W 001°47'0 0.0
2017-Nov-14 16:30N 46°30' W 001°47'0 0.0
2017-Nov-14 16:00N 46°30' W 001°47'0 0.0
2017-Nov-14 15:30N 46°30' W 001°47'0 0.0
2017-Nov-14 15:00N 46°30' W 001°47'0 0.0
2017-Nov-14 14:30N 46°30' W 001°47'0 0.0
2017-Nov-14 14:00N 46°30' W 001°47'0 0.0
2017-Nov-14 13:30N 46°30' W 001°47'0 0.0
2017-Nov-14 13:00N 46°30' W 001°47'0 0.0
2017-Nov-14 12:30N 46°30' W 001°47'0 0.0
2017-Nov-14 12:00N 46°30' W 001°47'0 0.0
2017-Nov-14 11:30N 46°30' W 001°47'0 0.0
2017-Nov-14 11:00N 46°30' W 001°47'0 0.0
2017-Nov-14 10:30N 46°30' W 001°47'0 0.0
2017-Nov-14 10:00N 46°30' W 001°47'0 0.0
2017-Nov-14 09:30N 46°30' W 001°47'0 0.0
2017-Nov-14 09:00N 46°30' W 001°47'0 0.0
2017-Nov-14 08:30N 46°30' W 001°47'0 0.0
2017-Nov-14 08:00N 46°30' W 001°47'0 0.0
2017-Nov-14 07:30N 46°30' W 001°47'0 0.0
2017-Nov-14 07:00N 46°30' W 001°47'0 0.0
2017-Nov-14 06:30N 46°30' W 001°47'0 0.0
2017-Nov-14 06:00N 46°30' W 001°47'0 0.0
2017-Nov-14 05:30N 46°30' W 001°47'0 0.0
2017-Nov-14 05:00N 46°30' W 001°47'0 0.0
2017-Nov-14 04:30N 46°30' W 001°47'0 0.0
2017-Nov-14 04:00N 46°30' W 001°47'0 0.0
2017-Nov-14 03:30N 46°30' W 001°47'0 0.0
2017-Nov-14 03:00N 46°30' W 001°47'0 0.0
2017-Nov-14 02:30N 46°30' W 001°47'0 0.0
2017-Nov-14 02:00N 46°30' W 001°47'0 0.0
2017-Nov-14 01:30N 46°30' W 001°47'0 0.0
2017-Nov-14 01:00N 46°30' W 001°47'0 0.0
2017-Nov-14 00:30N 46°30' W 001°47'0 0.0
2017-Nov-14 00:00N 46°30' W 001°47'0 0.0
2017-Nov-13 23:30N 46°30' W 001°47'0 0.0
2017-Nov-13 23:00N 46°30' W 001°47'0 0.0
2017-Nov-13 22:30N 46°30' W 001°47'0 0.0
2017-Nov-13 22:00N 46°30' W 001°47'  

Dump ship's entire track history